Belluno Airport


Codes: LIDB/BLX
Name: Belluno Airport
City: Belluno
Country: Italy
Elevation: 1240 ft.

Photos at Belluno Airport


   Photos courtesy of SpottingLog. You can add your own sightings and photos by signing up for a free trial today.



No photos found.

Weather at Belluno Airport


Time (UTC)DescriptionTempratureWindCloud coverageVisibilityPressureHumidity
25-Jun-2024 12:00Moderate Rain24°C2 mph, SE58%10000m1014hPa74%
25-Jun-2024 15:00Moderate Rain22°C4 mph, SE56%8526m1014hPa77%
25-Jun-2024 18:00Light Rain18°C4 mph, N70%10000m1014hPa86%
25-Jun-2024 21:00Light Rain13°C7 mph, N99%10000m1014hPa91%
26-Jun-2024 00:00Light Rain13°C7 mph, N100%10000m1014hPa90%
26-Jun-2024 03:00Light Rain12°C7 mph, N100%10000m1013hPa90%
26-Jun-2024 06:00Light Rain16°C4 mph, N94%10000m1013hPa87%
26-Jun-2024 09:00Light Rain19°C4 mph, S83%10000m1012hPa76%
26-Jun-2024 12:00Moderate Rain18°C4 mph, SE91%7698m1013hPa86%
26-Jun-2024 15:00Light Rain18°C2 mph, SW87%10000m1012hPa80%
26-Jun-2024 18:00Light Rain17°C2 mph, SW54%10000m1012hPa89%
26-Jun-2024 21:00Scattered Clouds13°C4 mph, N44%10000m1013hPa93%
27-Jun-2024 00:00Broken Clouds12°C4 mph, N71%10000m1013hPa91%
27-Jun-2024 03:00Overcast Clouds12°C4 mph, N100%10000m1013hPa89%
27-Jun-2024 06:00Overcast Clouds17°C2 mph, N100%10000m1012hPa78%
27-Jun-2024 09:00Scattered Clouds20°C7 mph, S41%10000m1012hPa64%
27-Jun-2024 12:00Light Rain22°C7 mph, S43%10000m1012hPa62%
27-Jun-2024 15:00Light Rain20°C4 mph, SE100%10000m1013hPa80%
27-Jun-2024 18:00Light Rain18°C2 mph, S100%10000m1014hPa91%
27-Jun-2024 21:00Scattered Clouds16°C4 mph, S48%10000m1015hPa96%
28-Jun-2024 00:00Scattered Clouds14°C7 mph, N34%10000m1016hPa91%
28-Jun-2024 03:00Scattered Clouds14°C7 mph, N48%10000m1016hPa87%
28-Jun-2024 06:00Scattered Clouds19°C2 mph, N50%10000m1016hPa69%
28-Jun-2024 09:00Few Clouds24°C4 mph, S13%10000m1016hPa51%
28-Jun-2024 12:00Clear Sky25°C7 mph, S9%10000m1017hPa55%
28-Jun-2024 15:00Clear Sky25°C4 mph, S0%10000m1017hPa57%
28-Jun-2024 18:00Light Rain21°C2 mph, SW18%10000m1019hPa88%
28-Jun-2024 21:00Clear Sky18°C7 mph, N9%10000m1020hPa92%
29-Jun-2024 00:00Broken Clouds17°C7 mph, N53%10000m1020hPa84%
29-Jun-2024 03:00Broken Clouds16°C7 mph, N61%10000m1020hPa80%
29-Jun-2024 06:00Scattered Clouds21°C4 mph, N46%10000m1019hPa68%
29-Jun-2024 09:00Broken Clouds26°C4 mph, S68%10000m1018hPa47%
29-Jun-2024 12:00Broken Clouds27°C7 mph, S56%10000m1017hPa46%
29-Jun-2024 15:00Broken Clouds26°C4 mph, S74%10000m1015hPa56%
29-Jun-2024 18:00Broken Clouds22°C2 mph, E83%10000m1014hPa84%
29-Jun-2024 21:00Broken Clouds18°C4 mph, N52%10000m1014hPa93%
30-Jun-2024 00:00Light Rain16°C7 mph, N41%10000m1014hPa93%
30-Jun-2024 03:00Light Rain15°C7 mph, N52%10000m1013hPa91%
30-Jun-2024 06:00Few Clouds20°C2 mph, N24%10000m1012hPa81%
30-Jun-2024 09:00Clear Sky24°C4 mph, S6%10000m1011hPa61%